Time;durP1;ratioP1;P1;durP2;ratioP2;P2;SDS_P1;SDS_P2;PMS_P1;PMS_P2;Temp;Humidity;BMP_temperature;BMP_pressure;BME280_temperature;BME280_humidity;BME280_pressure;Samples;Min_cycle;Max_cycle;Signal;HPM_P1;HPM_P2
2022/06/17 00:00:29;;;;;;;6.30;2.80;;;;;;;16.39;91.94;100072.94;4409255;32;33132;-87
2022/06/17 00:02:57;;;;;;;6.47;3.00;;;;;;;16.73;88.67;100068.50;4409109;32;32865;-87
2022/06/17 00:05:25;;;;;;;7.95;2.97;;;;;;;16.14;94.08;100068.78;4408827;32;33233;-88
2022/06/17 00:07:52;;;;;;;4.82;2.53;;;;;;;16.30;94.42;100071.84;4414317;32;33598;-87
2022/06/17 00:10:23;;;;;;;5.50;2.83;;;;;;;17.52;85.22;100066.88;4410594;32;33874;-87
2022/06/17 00:12:50;;;;;;;4.53;2.58;;;;;;;17.21;86.88;100075.78;4418555;32;33299;-87
2022/06/17 00:15:19;;;;;;;7.55;2.40;;;;;;;17.38;84.16;100068.28;4418385;32;33745;-88
2022/06/17 00:17:53;;;;;;;5.40;2.58;;;;;;;17.56;83.13;100070.41;4403642;32;32754;-88
2022/06/17 00:20:23;;;;;;;5.37;2.90;;;;;;;17.38;83.89;100061.31;4398767;32;32431;-87
2022/06/17 00:22:51;;;;;;;5.82;2.70;;;;;;;17.15;85.46;100065.16;4401643;32;33920;-87
2022/06/17 00:25:27;;;;;;;5.97;2.92;;;;;;;17.56;82.62;100052.06;4417788;32;34033;-87
2022/06/17 00:27:55;;;;;;;15.25;3.22;;;;;;;16.95;86.75;100077.81;4415930;32;33749;-87
2022/06/17 00:30:25;;;;;;;6.03;3.00;;;;;;;16.86;87.11;100068.00;4415371;32;33684;-87
2022/06/17 00:32:59;;;;;;;5.60;2.42;;;;;;;16.76;87.23;100076.44;4393359;32;32563;-87
2022/06/17 00:35:33;;;;;;;5.53;2.80;;;;;;;17.72;82.02;100064.63;4417916;32;34235;-87
2022/06/17 00:38:02;;;;;;;6.43;2.70;;;;;;;18.16;78.55;100077.75;4430450;32;33459;-87
2022/06/17 00:40:33;;;;;;;6.35;2.90;;;;;;;17.05;84.31;100095.47;4412416;32;34294;-87
2022/06/17 00:43:03;;;;;;;6.68;3.37;;;;;;;16.45;88.87;100086.16;4416675;32;34452;-86
2022/06/17 00:45:38;;;;;;;4.82;2.90;;;;;;;15.97;91.80;100086.62;4405369;32;34934;-87
2022/06/17 00:48:12;;;;;;;7.97;2.87;;;;;;;16.22;91.29;100075.97;4393549;32;32065;-87
2022/06/17 00:50:50;;;;;;;5.10;3.00;;;;;;;16.40;90.46;100062.50;4415062;32;33793;-87
2022/06/17 00:53:32;;;;;;;6.32;2.78;;;;;;;16.89;86.59;100065.47;4413396;32;33897;-87
2022/06/17 00:56:08;;;;;;;8.10;3.40;;;;;;;16.94;85.99;100065.56;4415578;32;33740;-87
2022/06/17 00:59:03;;;;;;;4.65;2.97;;;;;;;16.11;89.56;100059.16;4416213;32;33671;-87
2022/06/17 01:01:51;;;;;;;5.55;2.72;;;;;;;16.39;90.74;100062.47;4427634;32;34702;-87
2022/06/17 01:04:23;;;;;;;7.32;3.28;;;;;;;15.98;91.70;100063.16;4416221;32;34761;-87
2022/06/17 01:07:13;;;;;;;6.18;3.55;;;;;;;15.77;92.97;100058.22;4407380;32;34075;-87
2022/06/17 01:09:57;;;;;;;6.87;3.42;;;;;;;15.47;95.11;100059.09;4419414;32;33695;-87
2022/06/17 01:12:32;;;;;;;7.78;3.17;;;;;;;15.71;94.27;100058.03;4411651;32;34676;-87
2022/06/17 01:15:00;;;;;;;7.28;3.35;;;;;;;16.56;88.44;100069.00;4419372;32;33493;-87
2022/06/17 01:17:30;;;;;;;8.73;3.50;;;;;;;17.44;82.40;100069.31;4416520;32;33952;-87
2022/06/17 01:20:00;;;;;;;7.15;3.20;;;;;;;16.08;89.53;100074.72;4414911;32;33671;-87
2022/06/17 01:22:27;;;;;;;5.55;3.10;;;;;;;16.19;91.06;100068.06;4403164;32;34044;-87
2022/06/17 01:25:35;;;;;;;5.87;3.28;;;;;;;15.49;94.12;100075.69;4421570;32;34944;-87
2022/06/17 01:28:05;;;;;;;5.53;3.50;;;;;;;16.19;91.97;100075.91;4409461;32;35062;-87
2022/06/17 01:30:38;;;;;;;5.47;2.90;;;;;;;15.97;91.35;100076.16;4416704;32;34187;-87
2022/06/17 01:33:20;;;;;;;5.70;3.03;;;;;;;15.78;93.50;100085.22;4414757;32;33889;-87
2022/06/17 01:35:55;;;;;;;8.38;3.70;;;;;;;16.17;91.48;100079.31;4416364;32;34696;-87
2022/06/17 01:38:24;;;;;;;7.03;3.53;;;;;;;16.35;88.29;100084.16;4403614;32;32922;-87
2022/06/17 01:40:53;;;;;;;9.05;4.30;;;;;;;15.80;92.73;100094.87;4419931;32;33628;-87
2022/06/17 01:43:24;;;;;;;7.97;4.25;;;;;;;15.51;94.95;100092.28;4408546;32;32264;-87
2022/06/17 01:46:03;;;;;;;7.93;4.53;;;;;;;15.69;94.40;100096.25;4411595;32;34704;-87
2022/06/17 01:48:34;;;;;;;8.18;4.55;;;;;;;15.33;96.97;100096.94;4413988;32;34167;-87
2022/06/17 01:51:03;;;;;;;8.38;4.37;;;;;;;15.44;96.43;100105.97;4419714;32;33803;-87
2022/06/17 01:53:34;;;;;;;10.48;4.45;;;;;;;15.52;95.50;100099.25;4394923;32;33278;-87
2022/06/17 01:56:07;;;;;;;9.73;4.70;;;;;;;15.51;94.95;100110.56;4417659;32;33917;-87
2022/06/17 01:58:54;;;;;;;8.70;5.03;;;;;;;15.21;97.39;100112.22;4403061;32;32745;-87
2022/06/17 02:01:24;;;;;;;8.80;5.28;;;;;;;15.27;98.45;100112.41;4418195;32;33851;-87
2022/06/17 02:03:56;;;;;;;9.02;4.70;;;;;;;15.36;97.21;100111.81;4403613;32;33152;-87
2022/06/17 02:06:39;;;;;;;11.00;4.87;;;;;;;15.75;95.23;100106.91;4406486;32;32061;-87
2022/06/17 02:09:07;;;;;;;11.40;5.43;;;;;;;15.47;97.06;100113.00;4375928;32;34127;-87
2022/06/17 02:11:35;;;;;;;10.13;6.20;;;;;;;15.21;99.79;100113.09;4403415;32;33729;-87
2022/06/17 02:14:06;;;;;;;8.57;5.75;;;;;;;15.28;100.00;100114.19;4413311;32;34635;-87
2022/06/17 02:16:40;;;;;;;8.90;5.65;;;;;;;15.17;100.00;100110.38;4420660;32;33651;-87
2022/06/17 02:19:08;;;;;;;8.98;5.65;;;;;;;15.09;99.47;100113.62;4400635;32;34092;-86
2022/06/17 02:21:41;;;;;;;8.85;4.95;;;;;;;15.51;97.35;100107.94;4414837;32;33651;-87
2022/06/17 02:24:10;;;;;;;8.45;5.03;;;;;;;16.48;90.29;100107.16;4407844;32;32093;-86
2022/06/17 02:26:39;;;;;;;9.55;5.40;;;;;;;15.45;95.87;100112.06;4400941;32;33884;-86
2022/06/17 02:29:10;;;;;;;9.38;5.70;;;;;;;15.46;96.25;100099.06;4407155;32;34124;-86
2022/06/17 02:31:40;;;;;;;9.35;5.15;;;;;;;16.11;91.29;100099.22;4399428;32;31932;-86
2022/06/17 02:34:10;;;;;;;10.38;5.70;;;;;;;16.52;89.74;100103.78;4398963;32;32444;-87
2022/06/17 02:37:06;;;;;;;7.32;4.90;;;;;;;16.27;90.60;100097.91;4402093;32;33282;-87
2022/06/17 02:39:34;;;;;;;;;;;;;;;16.34;90.28;100108.50;4409189;32;33824;-87
2022/06/17 02:42:02;;;;;;;8.52;5.57;;;;;;;15.48;96.82;100113.06;4408139;32;32042;-86
2022/06/17 02:44:37;;;;;;;8.32;5.10;;;;;;;15.33;97.95;100115.22;4413211;32;34362;-87
2022/06/17 02:47:05;;;;;;;9.45;5.20;;;;;;;16.20;91.79;100111.63;4413946;32;31883;-87
2022/06/17 02:49:34;;;;;;;10.57;4.90;;;;;;;16.78;87.00;100119.22;4413185;32;34145;-87
2022/06/17 02:52:06;;;;;;;11.68;5.25;;;;;;;16.23;90.73;100122.19;4411863;32;33386;-87
2022/06/17 02:54:39;;;;;;;9.20;5.55;;;;;;;16.05;92.18;100114.75;4415407;32;33924;-87
2022/06/17 02:57:08;;;;;;;9.43;5.57;;;;;;;16.29;89.82;100117.12;4414112;32;34444;-87
2022/06/17 02:59:43;;;;;;;11.02;6.35;;;;;;;16.00;90.65;100118.06;4419776;32;34754;-87
2022/06/17 03:02:17;;;;;;;8.52;5.50;;;;;;;15.94;92.19;100117.91;4406667;32;34386;-87
2022/06/17 03:04:46;;;;;;;8.15;5.43;;;;;;;16.66;87.37;100114.56;4407002;32;33792;-87
2022/06/17 03:07:16;;;;;;;10.48;5.90;;;;;;;16.49;87.58;100114.13;4421296;32;34223;-87
2022/06/17 03:09:44;;;;;;;8.85;5.22;;;;;;;15.54;93.27;100097.56;4410953;32;34237;-87
2022/06/17 03:12:17;;;;;;;8.02;4.95;;;;;;;16.49;87.92;100098.44;4407156;32;32812;-87
2022/06/17 03:14:50;;;;;;;10.20;5.70;;;;;;;15.50;93.10;100106.16;4397295;32;34202;-86
2022/06/17 03:17:23;;;;;;;10.23;5.70;;;;;;;15.77;91.92;100100.00;4418947;32;33822;-86
2022/06/17 03:19:52;;;;;;;10.25;5.18;;;;;;;15.45;94.48;100107.75;4404428;32;33815;-86
2022/06/17 03:22:20;;;;;;;9.30;6.12;;;;;;;15.69;93.32;100098.88;4416126;32;33645;-87
2022/06/17 03:25:18;;;;;;;11.77;7.22;;;;;;;15.53;95.61;100100.16;4392172;32;33337;-86
2022/06/17 03:27:52;;;;;;;10.65;6.47;;;;;;;15.41;96.43;100110.22;4410245;32;34521;-87
2022/06/17 03:30:24;;;;;;;12.00;6.95;;;;;;;15.83;95.28;100110.63;4399939;32;32679;-87
2022/06/17 03:33:26;;;;;;;10.68;6.32;;;;;;;15.33;97.14;100107.38;4408537;32;32582;-87
2022/06/17 03:35:59;;;;;;;10.35;6.05;;;;;;;15.70;95.90;100113.69;4414693;32;34523;-87
2022/06/17 03:38:49;;;;;;;9.90;5.85;;;;;;;15.79;94.29;100108.78;4404555;32;32999;-87
2022/06/17 03:41:25;;;;;;;11.12;6.65;;;;;;;15.64;95.05;100108.28;4417607;32;34763;-87
2022/06/17 03:44:05;;;;;;;8.30;5.75;;;;;;;16.29;91.07;100117.12;4415161;32;33459;-86
2022/06/17 03:46:55;;;;;;;9.32;6.22;;;;;;;16.02;92.81;100126.84;4416234;32;33681;-87
2022/06/17 03:49:54;;;;;;;10.07;6.12;;;;;;;16.14;91.57;100121.06;4409751;32;33820;-87
2022/06/17 03:52:30;;;;;;;9.82;5.80;;;;;;;16.46;89.13;100127.16;4410454;32;34072;-87
2022/06/17 03:55:01;;;;;;;9.93;5.70;;;;;;;16.58;88.26;100130.06;4417207;32;33813;-87
2022/06/17 03:57:31;;;;;;;9.68;5.68;;;;;;;16.66;89.92;100127.66;4418171;32;33584;-87
2022/06/17 04:00:00;;;;;;;9.90;5.80;;;;;;;17.25;85.25;100136.09;4406175;32;33769;-87
2022/06/17 04:02:32;;;;;;;10.35;5.80;;;;;;;16.72;88.52;100143.50;4420227;32;33016;-87
2022/06/17 04:05:01;;;;;;;10.07;6.03;;;;;;;16.81;88.78;100142.84;4417807;32;34311;-87
2022/06/17 04:07:31;;;;;;;8.32;5.43;;;;;;;16.52;88.83;100145.59;4402115;32;33730;-87
2022/06/17 04:09:59;;;;;;;9.50;4.57;;;;;;;16.67;89.73;100143.41;4399551;32;32347;-87
2022/06/17 04:12:28;;;;;;;6.68;4.00;;;;;;;16.16;89.17;100145.50;4420082;32;34731;-87
2022/06/17 04:15:24;;;;;;;7.78;4.10;;;;;;;16.49;88.57;100140.28;4389474;32;32604;-87
2022/06/17 04:17:53;;;;;;;7.70;4.57;;;;;;;16.41;88.41;100147.06;4420151;32;33505;-87
2022/06/17 04:20:35;;;;;;;8.50;5.25;;;;;;;17.32;84.51;100152.81;4409076;32;34670;-87
2022/06/17 04:23:10;;;;;;;8.57;5.07;;;;;;;17.69;82.70;100158.87;4419408;32;33946;-87
2022/06/17 04:25:48;;;;;;;11.20;6.20;;;;;;;17.38;82.77;100168.66;4407368;32;32179;-87
2022/06/17 04:28:21;;;;;;;9.93;5.12;;;;;;;16.99;86.99;100159.03;4413963;32;33503;-87
2022/06/17 04:30:54;;;;;;;9.82;5.22;;;;;;;17.24;85.09;100159.63;4406005;32;32911;-87
2022/06/17 04:33:25;;;;;;;7.15;4.80;;;;;;;17.25;86.66;100161.41;4411771;32;34189;-87
2022/06/17 04:35:58;;;;;;;8.05;4.28;;;;;;;17.29;84.99;100163.25;4411487;32;34249;-88
2022/06/17 04:38:28;;;;;;;7.50;4.57;;;;;;;17.49;84.20;100161.06;4420899;32;34635;-87
2022/06/17 04:40:59;;;;;;;7.82;4.40;;;;;;;18.18;79.87;100159.94;4412916;32;34551;-87
2022/06/17 04:43:34;;;;;;;6.53;4.30;;;;;;;18.69;78.11;100162.63;4400669;32;34832;-87
2022/06/17 04:46:16;;;;;;;6.57;4.28;;;;;;;18.87;77.61;100152.47;4397096;32;32453;-87
2022/06/17 04:48:57;;;;;;;7.95;3.75;;;;;;;18.49;80.14;100157.91;4411694;32;33091;-87
2022/06/17 04:51:26;;;;;;;6.22;3.47;;;;;;;18.73;77.57;100148.69;4410269;32;34761;-87
2022/06/17 04:54:04;;;;;;;6.22;2.83;;;;;;;18.74;77.44;100155.72;4410062;32;32439;-87
2022/06/17 04:56:46;;;;;;;5.07;2.67;;;;;;;19.11;74.98;100156.38;4417520;32;32754;-87
2022/06/17 04:59:32;;;;;;;7.70;2.47;;;;;;;19.17;74.12;100159.09;4384931;32;33055;-87
2022/06/17 05:02:03;;;;;;;5.55;2.30;;;;;;;19.22;73.10;100162.66;4423629;32;33641;-88
2022/06/17 05:04:32;;;;;;;6.12;2.12;;;;;;;19.40;72.06;100164.69;4404099;32;33911;-87
2022/06/17 05:07:00;;;;;;;4.22;1.98;;;;;;;19.15;72.17;100150.28;4408143;32;33770;-87
2022/06/17 05:09:34;;;;;;;3.87;1.90;;;;;;;19.05;72.84;100158.03;4404617;32;31959;-87
2022/06/17 05:12:05;;;;;;;4.05;2.00;;;;;;;19.19;72.47;100154.72;4411275;32;31962;-88
2022/06/17 05:14:36;;;;;;;5.47;3.05;;;;;;;19.15;72.19;100155.53;4401769;32;32491;-88
2022/06/17 05:17:04;;;;;;;4.70;2.15;;;;;;;19.21;73.16;100158.25;4415159;32;33423;-89
2022/06/17 05:19:33;;;;;;;3.22;1.83;;;;;;;19.39;71.66;100157.66;4410427;32;34519;-87
2022/06/17 05:22:02;;;;;;;3.75;1.95;;;;;;;19.36;71.28;100157.62;4416890;32;35414;-87
2022/06/17 05:24:31;;;;;;;5.43;2.00;;;;;;;19.37;71.40;100149.78;4415164;32;34491;-86
2022/06/17 05:26:59;;;;;;;5.72;2.03;;;;;;;19.27;71.39;100152.22;4402990;32;34388;-88
2022/06/17 05:29:26;;;;;;;6.82;1.90;;;;;;;19.22;72.85;100150.41;4389155;32;32355;-87
2022/06/17 05:31:54;;;;;;;5.93;2.20;;;;;;;19.61;71.05;100143.09;4415197;32;33624;-86
2022/06/17 05:34:22;;;;;;;4.65;2.10;;;;;;;19.56;70.36;100144.75;4405660;32;33561;-87
2022/06/17 05:36:52;;;;;;;3.92;1.90;;;;;;;19.74;70.45;100147.69;4398154;32;33719;-87
2022/06/17 05:39:20;;;;;;;4.97;2.03;;;;;;;19.96;68.52;100140.06;4414976;32;32401;-87
2022/06/17 05:41:48;;;;;;;4.47;2.28;;;;;;;20.01;68.85;100148.84;4404271;32;33788;-86
2022/06/17 05:44:16;;;;;;;4.78;2.30;;;;;;;20.19;68.41;100148.22;4413022;32;34757;-87
2022/06/17 05:46:47;;;;;;;4.25;1.80;;;;;;;20.30;67.26;100151.84;4405647;32;33384;-87
2022/06/17 05:49:15;;;;;;;4.32;2.00;;;;;;;20.17;67.73;100168.34;4421372;32;32273;-87
2022/06/17 05:51:43;;;;;;;4.35;1.90;;;;;;;19.95;68.62;100165.47;4412924;32;35715;-86
2022/06/17 05:54:12;;;;;;;3.42;1.80;;;;;;;20.04;68.15;100180.47;4413816;32;32228;-87
2022/06/17 05:56:39;;;;;;;4.37;2.10;;;;;;;20.03;67.21;100183.97;4424355;32;33362;-86
2022/06/17 05:59:07;;;;;;;4.53;2.05;;;;;;;20.12;68.01;100188.44;4425793;32;33531;-88
2022/06/17 06:01:35;;;;;;;3.47;2.08;;;;;;;20.03;67.27;100194.50;4429463;32;34272;-87
2022/06/17 06:04:03;;;;;;;5.57;2.12;;;;;;;20.09;66.74;100189.31;4421418;32;33926;-88
2022/06/17 06:06:31;;;;;;;4.47;1.77;;;;;;;20.01;67.01;100193.56;4417322;32;33065;-87
2022/06/17 06:08:59;;;;;;;5.10;1.90;;;;;;;20.09;67.23;100194.56;4407932;32;34386;-87
2022/06/17 06:11:27;;;;;;;5.32;1.70;;;;;;;20.46;67.25;100189.72;4426150;32;34535;-87
2022/06/17 06:13:55;;;;;;;5.10;2.12;;;;;;;20.08;67.65;100198.03;4428204;32;33763;-87
2022/06/17 06:16:23;;;;;;;5.07;2.33;;;;;;;20.33;67.10;100203.59;4414598;32;34175;-87
2022/06/17 06:18:52;;;;;;;5.12;2.15;;;;;;;20.52;66.45;100202.94;4412358;32;32161;-88
2022/06/17 06:21:20;;;;;;;5.03;2.45;;;;;;;20.18;68.08;100209.56;4414527;32;33533;-88
2022/06/17 06:23:48;;;;;;;4.12;2.03;;;;;;;19.68;69.36;100205.34;4419599;32;34883;-86
2022/06/17 06:26:21;;;;;;;7.40;2.00;;;;;;;19.75;70.28;100209.87;4413041;32;33011;-87
2022/06/17 06:28:49;;;;;;;4.87;2.55;;;;;;;20.08;68.20;100200.69;4421970;32;34560;-86
2022/06/17 06:31:37;;;;;;;5.37;2.25;;;;;;;20.44;67.52;100204.62;4422795;32;33827;-86
2022/06/17 06:34:05;;;;;;;4.53;2.75;;;;;;;20.50;67.45;100217.84;4415903;32;33979;-86
2022/06/17 06:36:38;;;;;;;9.05;2.80;;;;;;;19.58;71.36;100219.22;4414263;32;33543;-86
2022/06/17 06:39:06;;;;;;;5.93;2.50;;;;;;;20.09;69.50;100225.22;4410942;32;34262;-87
2022/06/17 06:41:34;;;;;;;5.05;2.40;;;;;;;19.52;71.64;100216.53;4414429;32;34075;-87
2022/06/17 06:44:02;;;;;;;6.47;2.60;;;;;;;20.10;69.36;100222.63;4401797;32;34268;-87
2022/06/17 06:46:31;;;;;;;5.10;2.60;;;;;;;20.52;67.57;100221.38;4418798;32;34413;-87
2022/06/17 06:48:59;;;;;;;6.37;2.92;;;;;;;19.88;70.75;100223.22;4422717;32;33922;-87
2022/06/17 06:51:28;;;;;;;7.32;2.87;;;;;;;20.07;71.35;100219.97;4421243;32;32657;-86
2022/06/17 06:53:56;;;;;;;5.45;2.72;;;;;;;20.00;70.38;100224.25;4411608;32;34146;-86
2022/06/17 06:56:24;;;;;;;5.03;2.90;;;;;;;20.56;68.96;100219.66;4417514;32;33754;-86
2022/06/17 06:58:51;;;;;;;5.30;2.70;;;;;;;20.06;69.40;100215.56;4406453;32;32117;-87
2022/06/17 07:01:20;;;;;;;4.53;2.90;;;;;;;20.65;67.52;100211.91;4410535;32;33873;-87
2022/06/17 07:03:48;;;;;;;4.35;2.47;;;;;;;19.77;70.26;100213.41;4417543;32;35623;-86
2022/06/17 07:06:16;;;;;;;5.22;2.70;;;;;;;20.70;69.29;100218.06;4413169;32;34355;-86
2022/06/17 07:08:44;;;;;;;5.37;2.92;;;;;;;20.00;68.68;100226.00;4405974;32;34244;-87
2022/06/17 07:11:13;;;;;;;7.47;2.65;;;;;;;20.16;69.56;100217.41;4407586;32;33950;-85
2022/06/17 07:13:43;;;;;;;4.72;2.50;;;;;;;20.73;67.74;100230.41;4400814;32;33660;-86
2022/06/17 07:16:12;;;;;;;4.32;2.70;;;;;;;20.53;66.91;100225.78;4419770;32;33407;-87
2022/06/17 07:18:40;;;;;;;6.18;2.47;;;;;;;20.74;66.64;100222.50;4382462;32;33814;-86
2022/06/17 07:21:10;;;;;;;4.55;2.05;;;;;;;20.28;68.11;100226.34;4408653;32;32886;-86
2022/06/17 07:23:43;;;;;;;5.62;2.05;;;;;;;20.85;66.04;100230.50;4418376;32;34075;-87
2022/06/17 07:26:20;;;;;;;5.70;2.72;;;;;;;21.21;65.28;100231.72;4408358;32;34199;-88
2022/06/17 07:28:50;;;;;;;4.70;2.47;;;;;;;20.87;66.48;100223.50;4409890;32;32753;-87
2022/06/17 07:31:19;;;;;;;5.12;2.85;;;;;;;21.02;65.95;100228.03;4404931;32;33025;-87
2022/06/17 07:33:46;;;;;;;5.82;3.00;;;;;;;21.13;65.62;100236.03;4415958;32;34091;-86
2022/06/17 07:41:54;;;;;;;7.22;2.78;;;;;;;21.50;65.01;100238.97;4429346;32;34403;-86
2022/06/17 07:44:22;;;;;;;7.68;3.50;;;;;;;21.00;66.53;100238.56;4410123;32;33105;-87
2022/06/17 07:46:50;;;;;;;5.15;2.80;;;;;;;21.15;66.52;100235.19;4417327;32;33233;-88
2022/06/17 07:49:18;;;;;;;6.20;2.62;;;;;;;22.05;65.44;100241.97;4410186;32;34698;-87
2022/06/17 07:51:46;;;;;;;8.77;3.30;;;;;;;22.71;63.38;100234.31;4415941;32;33337;-86
2022/06/17 07:54:15;;;;;;;5.28;3.15;;;;;;;22.12;64.00;100241.13;4431580;32;33999;-86
2022/06/17 07:56:42;;;;;;;9.20;3.12;;;;;;;22.55;62.70;100230.75;4423873;32;32986;-86
2022/06/17 07:59:11;;;;;;;8.70;2.92;;;;;;;22.55;61.93;100233.41;4394196;32;34034;-86
2022/06/17 08:01:39;;;;;;;7.70;3.40;;;;;;;22.47;62.93;100240.41;4418492;32;34802;-85
2022/06/17 08:04:07;;;;;;;6.78;3.08;;;;;;;22.58;63.14;100233.41;4403579;32;34404;-87
2022/06/17 08:06:35;;;;;;;6.28;3.12;;;;;;;23.26;60.28;100238.81;4396118;32;33678;-85
2022/06/17 08:09:03;;;;;;;6.62;3.40;;;;;;;22.84;61.32;100240.50;4407763;32;33723;-87
2022/06/17 08:11:31;;;;;;;5.75;3.40;;;;;;;21.95;63.12;100250.72;4416010;32;34690;-87
2022/06/17 08:13:58;;;;;;;6.68;3.55;;;;;;;22.74;62.86;100244.88;4414918;32;34353;-86
2022/06/17 08:16:26;;;;;;;6.93;3.20;;;;;;;22.50;64.00;100244.81;4418605;32;33802;-88
2022/06/17 08:18:54;;;;;;;7.40;3.87;;;;;;;22.54;62.58;100247.50;4407843;32;32803;-87
2022/06/17 08:21:21;;;;;;;7.32;3.42;;;;;;;23.78;62.94;100244.91;4418182;32;33935;-87
2022/06/17 08:24:09;;;;;;;7.40;3.30;;;;;;;23.78;59.64;100244.91;4419034;32;35285;-86
2022/06/17 08:26:37;;;;;;;7.15;3.08;;;;;;;23.69;57.70;100249.34;4423937;32;33565;-86
2022/06/17 08:29:05;;;;;;;8.30;3.17;;;;;;;23.63;60.00;100244.06;4413547;32;31916;-87
2022/06/17 08:31:52;;;;;;;5.75;2.67;;;;;;;24.58;56.22;100242.03;4415231;32;35199;-88
2022/06/17 08:34:20;;;;;;;5.03;2.33;;;;;;;25.21;52.43;100234.53;4418352;32;34181;-88
2022/06/17 08:36:49;;;;;;;7.25;2.05;;;;;;;25.18;48.32;100238.97;4424903;32;33536;-88
2022/06/17 08:39:16;;;;;;;3.33;1.83;;;;;;;25.47;46.83;100239.63;4421143;32;34685;-88
2022/06/17 08:41:59;;;;;;;4.03;2.30;;;;;;;26.05;41.53;100234.66;4411413;32;34585;-86
2022/06/17 08:44:30;;;;;;;6.22;2.30;;;;;;;26.08;45.00;100235.50;4401162;32;34094;-86
2022/06/17 08:47:04;;;;;;;5.55;2.17;;;;;;;26.44;41.90;100246.56;4423268;32;32644;-85
2022/06/17 08:49:44;;;;;;;3.90;2.10;;;;;;;26.53;42.77;100242.88;4415940;32;34476;-85
2022/06/17 08:52:24;;;;;;;4.50;2.20;;;;;;;26.30;42.47;100240.53;4410780;32;32543;-83
2022/06/17 08:55:14;;;;;;;3.87;2.22;;;;;;;27.02;42.38;100242.22;4417751;32;34053;-84
2022/06/17 08:58:20;;;;;;;8.15;2.47;;;;;;;25.98;48.51;100247.13;4412272;32;33637;-85
2022/06/17 09:01:27;;;;;;;5.40;2.55;;;;;;;25.60;48.99;100248.38;4415169;32;33565;-85
2022/06/17 09:04:02;;;;;;;4.47;2.28;;;;;;;26.51;46.87;100246.47;4419822;32;34235;-84
2022/06/17 09:06:36;;;;;;;4.72;3.10;;;;;;;27.03;46.96;100240.44;4414227;32;33204;-85
2022/06/17 09:09:12;;;;;;;5.90;3.03;;;;;;;27.14;46.02;100243.78;4418310;32;33460;-85
2022/06/17 09:12:11;;;;;;;9.20;3.17;;;;;;;26.29;46.73;100250.28;4414995;32;34722;-86
2022/06/17 09:14:58;;;;;;;12.10;2.92;;;;;;;26.72;44.21;100259.50;4396261;32;33873;-84
2022/06/17 09:18:03;;;;;;;9.05;2.35;;;;;;;26.71;41.51;100255.06;4414530;32;34720;-85
2022/06/17 09:20:37;;;;;;;5.97;2.20;;;;;;;27.31;38.31;100259.47;4415256;32;33549;-87
2022/06/17 09:23:17;;;;;;;4.50;2.25;;;;;;;27.63;37.21;100271.37;4414569;32;34726;-85
2022/06/17 09:25:46;;;;;;;6.60;2.50;;;;;;;28.37;42.10;100260.16;4419030;32;33679;-84
2022/06/17 09:28:31;;;;;;;4.25;2.47;;;;;;;28.22;44.61;100265.81;4417841;32;34117;-84
2022/06/17 09:31:03;;;;;;;;;;;;;;;27.16;42.57;100260.59;4416228;32;33444;-87
2022/06/17 09:33:51;;;;;;;6.50;2.20;;;;;;;27.97;42.15;100266.34;4418867;32;33750;-88
2022/06/17 09:36:32;;;;;;;3.55;2.08;;;;;;;28.82;35.42;100257.44;4421664;32;33942;-86
2022/06/17 09:39:06;;;;;;;4.78;2.40;;;;;;;29.11;34.78;100263.87;4421307;32;33434;-88
2022/06/17 09:41:39;;;;;;;5.35;2.30;;;;;;;29.02;36.09;100267.63;4420711;32;34363;-86
2022/06/17 09:44:15;;;;;;;3.43;1.97;;;;;;;28.66;34.40;100266.69;4423925;32;34160;-90
2022/06/17 09:46:48;;;;;;;4.45;2.15;;;;;;;28.57;34.37;100269.59;4395784;32;33593;-87
2022/06/17 09:49:18;;;;;;;;;;;;;;;28.65;34.10;100272.97;4418538;32;34202;-87
2022/06/17 09:52:09;;;;;;;6.40;2.60;;;;;;;27.91;40.72;100277.09;4435500;32;34500;-87
2022/06/17 09:54:44;;;;;;;4.72;2.58;;;;;;;25.80;45.44;100282.66;4420652;32;34513;-88
2022/06/17 09:57:21;;;;;;;5.87;2.90;;;;;;;25.27;46.55;100287.53;4416704;32;34762;-86
2022/06/17 10:00:12;;;;;;;5.85;2.40;;;;;;;25.31;46.41;100289.28;4421926;32;33869;-87
2022/06/17 10:02:49;;;;;;;7.55;2.87;;;;;;;26.91;44.73;100284.03;4409481;32;34977;-87
2022/06/17 10:05:56;;;;;;;6.47;2.92;;;;;;;27.32;43.64;100297.63;4426174;32;33716;-87
2022/06/17 10:08:27;;;;;;;4.00;2.22;;;;;;;27.07;42.70;100297.97;4418211;32;33702;-86
2022/06/17 10:11:14;;;;;;;4.62;2.55;;;;;;;26.88;43.09;100303.53;4412253;32;33175;-87
2022/06/17 10:13:57;;;;;;;6.20;2.53;;;;;;;27.46;41.60;100296.47;4417316;32;34306;-87
2022/06/17 10:19:54;;;;;;;4.30;2.50;;;;;;;26.21;45.78;100305.28;4408567;32;33936;-87
2022/06/17 10:22:44;;;;;;;6.35;2.60;;;;;;;27.39;41.38;100309.91;4425737;32;33599;-86
2022/06/17 10:25:24;;;;;;;5.40;2.90;;;;;;;27.40;44.58;100306.34;4417814;32;33287;-87
2022/06/17 10:28:19;;;;;;;5.62;2.90;;;;;;;26.75;45.20;100307.25;4417676;32;33068;-86
2022/06/17 10:30:58;;;;;;;4.65;2.90;;;;;;;26.65;45.31;100311.81;4416912;32;33474;-86
2022/06/17 10:33:29;;;;;;;4.85;2.47;;;;;;;27.46;42.61;100307.09;4405625;32;34151;-85
2022/06/17 10:36:00;;;;;;;5.97;2.83;;;;;;;27.53;39.43;100307.91;4413806;32;33233;-87
2022/06/17 10:38:34;;;;;;;5.62;3.12;;;;;;;27.57;39.78;100306.94;4412648;32;34231;-86
2022/06/17 10:41:02;;;;;;;6.30;2.90;;;;;;;27.32;39.02;100313.59;4421163;32;33661;-86
2022/06/17 10:43:39;;;;;;;5.37;2.80;;;;;;;27.59;42.16;100299.81;4418631;32;34049;-86
2022/06/17 10:46:36;;;;;;;6.57;2.80;;;;;;;27.72;39.38;100308.47;4420040;32;34209;-87
2022/06/17 10:49:19;;;;;;;6.20;3.00;;;;;;;27.84;37.96;100307.38;4412314;32;34167;-86
2022/06/17 10:51:48;;;;;;;6.97;2.80;;;;;;;27.89;38.58;100309.97;4420245;32;33747;-87
2022/06/17 10:54:29;;;;;;;5.40;2.90;;;;;;;27.99;39.16;100303.56;4416556;32;34871;-88
2022/06/17 10:57:27;;;;;;;5.85;2.70;;;;;;;27.71;38.58;100311.16;4412050;32;34357;-86
2022/06/17 10:59:55;;;;;;;6.00;2.78;;;;;;;28.26;38.46;100301.28;4418899;32;33657;-85
2022/06/17 11:02:30;;;;;;;5.03;2.53;;;;;;;27.83;35.96;100305.59;4415399;32;32355;-84
2022/06/17 11:05:00;;;;;;;5.32;2.83;;;;;;;27.65;35.37;100313.00;4421167;32;34136;-86
2022/06/17 11:07:33;;;;;;;5.03;2.30;;;;;;;27.85;33.64;100303.78;4417961;32;33511;-88
2022/06/17 11:10:13;;;;;;;4.95;2.92;;;;;;;28.11;34.92;100300.69;4417366;32;34268;-86
2022/06/17 11:13:00;;;;;;;5.43;2.72;;;;;;;28.49;38.24;100306.13;4419728;32;34597;-86
2022/06/17 11:15:36;;;;;;;4.72;2.55;;;;;;;28.46;36.34;100296.41;4412400;32;34790;-87
2022/06/17 11:18:13;;;;;;;4.62;2.95;;;;;;;28.22;37.19;100309.34;4420006;32;33208;-88
2022/06/17 11:20:53;;;;;;;4.47;2.30;;;;;;;28.19;36.18;100308.53;4418566;32;33536;-89
2022/06/17 11:23:25;;;;;;;3.85;2.37;;;;;;;27.64;34.25;100310.38;4419021;32;33770;-87
2022/06/17 11:26:19;;;;;;;4.93;2.75;;;;;;;27.19;35.59;100302.22;4421739;32;34798;-87
2022/06/17 11:28:53;;;;;;;4.93;2.53;;;;;;;26.79;36.11;100316.06;4416432;32;33524;-85
2022/06/17 11:31:24;;;;;;;5.37;3.40;;;;;;;27.06;37.49;100312.16;4412866;32;33965;-84
2022/06/17 11:33:52;;;;;;;6.47;3.65;;;;;;;27.06;38.83;100306.81;4414815;32;33901;-88
2022/06/17 11:36:27;;;;;;;4.25;2.75;;;;;;;26.99;39.60;100305.19;4415504;32;34102;-86
2022/06/17 11:39:18;;;;;;;4.15;3.00;;;;;;;27.22;39.03;100297.72;4419875;32;32090;-86
2022/06/17 11:41:45;;;;;;;3.47;2.65;;;;;;;27.04;38.36;100303.31;4416322;32;33689;-84
2022/06/17 11:44:19;;;;;;;4.18;2.75;;;;;;;26.56;39.18;100311.03;4417825;32;33892;-84
2022/06/17 11:47:02;;;;;;;4.78;3.15;;;;;;;26.51;39.58;100312.88;4411936;32;32908;-84
2022/06/17 11:49:35;;;;;;;5.55;2.95;;;;;;;26.51;39.45;100312.88;4409532;32;31788;-84
2022/06/17 11:52:08;;;;;;;5.25;2.95;;;;;;;26.44;41.70;100307.66;4410695;32;33383;-84
2022/06/17 11:54:50;;;;;;;5.32;2.97;;;;;;;26.57;41.33;100315.47;4417115;32;33628;-85
2022/06/17 11:57:24;;;;;;;5.15;3.42;;;;;;;26.74;41.14;100310.84;4401049;32;199790;-85
2022/06/17 11:59:54;;;;;;;5.28;3.37;;;;;;;25.74;42.24;100297.75;4407671;32;33595;-83
2022/06/17 12:02:22;;;;;;;6.18;3.17;;;;;;;26.46;39.84;100300.53;4406542;32;33150;-85
2022/06/17 12:04:54;;;;;;;4.50;2.90;;;;;;;26.48;40.06;100298.75;4402411;32;33863;-84